createdAt,value
2023-02-25T00:01:08.485Z,88
2023-02-25T00:03:08.599Z,88
2023-02-25T00:05:07.924Z,88
2023-02-25T00:06:08.763Z,88
2023-02-25T00:07:08.682Z,88
2023-02-25T00:08:08.236Z,88
2023-02-25T00:09:07.731Z,88
2023-02-25T00:10:08.734Z,88
2023-02-25T00:11:08.352Z,88
2023-02-25T00:12:08.175Z,88
2023-02-25T00:14:08.440Z,88
2023-02-25T00:15:08.322Z,88
2023-02-25T00:16:08.151Z,88
2023-02-25T00:17:07.990Z,88
2023-02-25T00:18:08.845Z,88
2023-02-25T00:19:08.723Z,88
2023-02-25T00:20:08.405Z,88
2023-02-25T00:21:08.748Z,88
2023-02-25T00:22:08.387Z,88
2023-02-25T00:23:08.433Z,88
2023-02-25T00:24:21.798Z,88
2023-02-25T00:25:08.190Z,88
2023-02-25T00:26:08.405Z,88
2023-02-25T00:27:08.308Z,88
2023-02-25T00:28:08.096Z,88
2023-02-25T00:29:07.924Z,88
2023-02-25T00:30:08.590Z,88
2023-02-25T00:31:09.252Z,88
2023-02-25T00:32:09.766Z,88
2023-02-25T00:33:08.503Z,88
2023-02-25T00:34:08.451Z,88
2023-02-25T00:35:08.266Z,88
2023-02-25T00:36:07.857Z,88
2023-02-25T00:37:08.943Z,88
2023-02-25T00:38:21.525Z,88
2023-02-25T00:39:08.379Z,88
2023-02-25T00:40:08.131Z,88
2023-02-25T00:41:08.078Z,88
2023-02-25T00:42:07.858Z,88
2023-02-25T00:43:08.440Z,88
2023-02-25T00:44:08.358Z,88
2023-02-25T00:45:08.117Z,88
2023-02-25T00:46:08.188Z,89
2023-02-25T00:47:08.663Z,89
2023-02-25T00:48:08.120Z,89
2023-02-25T00:51:07.784Z,89
2023-02-25T00:52:08.837Z,89
2023-02-25T00:53:08.659Z,89
2023-02-25T00:54:08.365Z,89
2023-02-25T00:55:08.031Z,89
2023-02-25T00:57:07.903Z,89
2023-02-25T00:58:08.791Z,89
2023-02-25T00:59:08.440Z,89
2023-02-25T01:00:08.434Z,89
2023-02-25T01:01:08.625Z,89
2023-02-25T01:02:08.399Z,89
2023-02-25T01:03:08.143Z,89
2023-02-25T01:04:08.287Z,89
2023-02-25T01:06:08.006Z,89
2023-02-25T01:07:10.075Z,89
2023-02-25T01:08:08.441Z,89
2023-02-25T01:09:08.447Z,89
2023-02-25T01:10:08.188Z,89
2023-02-25T01:11:08.176Z,89
2023-02-25T01:12:08.262Z,89
2023-02-25T01:13:08.104Z,89
2023-02-25T01:14:08.251Z,89
2023-02-25T01:15:08.891Z,89
2023-02-25T01:16:08.493Z,89
2023-02-25T01:17:07.892Z,89
2023-02-25T01:18:08.666Z,89
2023-02-25T01:19:08.555Z,89
2023-02-25T01:20:08.292Z,89
2023-02-25T01:21:08.651Z,89
2023-02-25T01:22:08.299Z,89
2023-02-25T01:23:08.164Z,89
2023-02-25T01:25:07.836Z,89
2023-02-25T01:26:08.134Z,89
2023-02-25T01:27:07.983Z,89
2023-02-25T01:28:08.396Z,89
2023-02-25T01:29:08.373Z,89
2023-02-25T01:30:08.158Z,89
2023-02-25T01:31:08.976Z,89
2023-02-25T01:32:09.387Z,89
2023-02-25T01:33:08.418Z,89
2023-02-25T01:34:07.863Z,89
2023-02-25T01:35:08.833Z,89
2023-02-25T01:36:07.781Z,89
2023-02-25T01:37:08.542Z,89
2023-02-25T01:38:08.169Z,89
2023-02-25T01:39:09.218Z,89
2023-02-25T01:40:08.053Z,89
2023-02-25T01:41:08.368Z,89
2023-02-25T01:42:08.407Z,89
2023-02-25T01:43:08.108Z,89
2023-02-25T01:44:07.714Z,89
2023-02-25T01:45:08.681Z,89
2023-02-25T01:46:08.116Z,89
2023-02-25T01:48:08.565Z,89
2023-02-25T01:49:08.816Z,89
2023-02-25T01:50:08.118Z,89
2023-02-25T01:51:08.209Z,89
2023-02-25T01:52:08.066Z,89
2023-02-25T01:53:08.605Z,89
2023-02-25T01:54:08.515Z,89
2023-02-25T01:56:08.184Z,89
2023-02-25T01:57:07.915Z,89
2023-02-25T01:58:08.674Z,89
2023-02-25T01:59:08.463Z,89
2023-02-25T02:01:08.855Z,89
2023-02-25T02:02:08.717Z,89
2023-02-25T02:03:07.935Z,89
2023-02-25T02:04:08.789Z,89
2023-02-25T02:06:07.785Z,89
2023-02-25T02:07:07.828Z,89
2023-02-25T02:08:08.560Z,89
2023-02-25T02:09:08.171Z,89
2023-02-25T02:11:08.016Z,89
2023-02-25T02:13:08.658Z,89
2023-02-25T02:14:08.092Z,89
2023-02-25T02:15:08.117Z,89
2023-02-25T02:16:08.486Z,89
2023-02-25T02:17:08.143Z,89
2023-02-25T02:18:07.981Z,89
2023-02-25T02:19:08.785Z,89
2023-02-25T02:20:08.490Z,89
2023-02-25T02:21:08.541Z,89
2023-02-25T02:22:08.264Z,89
2023-02-25T02:24:07.951Z,89
2023-02-25T02:26:08.650Z,89
2023-02-25T02:27:08.527Z,89
2023-02-25T02:28:08.332Z,89
2023-02-25T02:29:08.191Z,89
2023-02-25T02:30:08.157Z,89
2023-02-25T02:31:09.189Z,89
2023-02-25T02:32:09.256Z,89
2023-02-25T02:33:08.312Z,89
2023-02-25T02:34:08.217Z,89
2023-02-25T02:36:08.481Z,89
2023-02-25T02:37:08.263Z,89
2023-02-25T02:39:07.901Z,89
2023-02-25T02:40:08.755Z,89
2023-02-25T02:41:08.192Z,89
2023-02-25T02:42:07.904Z,89
2023-02-25T02:43:08.521Z,89
2023-02-25T02:44:08.302Z,89
2023-02-25T02:45:08.118Z,89
2023-02-25T02:47:08.189Z,89
2023-02-25T02:48:07.866Z,89
2023-02-25T02:49:08.762Z,89
2023-02-25T02:50:08.474Z,89
2023-02-25T02:51:08.551Z,89
2023-02-25T02:52:08.254Z,89
2023-02-25T02:53:08.260Z,89
2023-02-25T02:54:08.071Z,89
2023-02-25T02:55:07.809Z,89
2023-02-25T02:56:07.642Z,89
2023-02-25T02:57:08.878Z,89
2023-02-25T02:59:08.561Z,89
2023-02-25T03:00:08.051Z,89
2023-02-25T03:01:08.927Z,89
2023-02-25T03:02:08.464Z,89
2023-02-25T03:03:08.002Z,89
2023-02-25T03:04:08.426Z,89
2023-02-25T03:05:07.777Z,89
2023-02-25T03:06:08.071Z,89
2023-02-25T03:07:08.961Z,89
2023-02-25T03:09:08.130Z,89
2023-02-25T03:10:08.015Z,89
2023-02-25T03:11:07.823Z,89
2023-02-25T03:12:08.704Z,89
2023-02-25T03:13:08.270Z,89
2023-02-25T03:14:08.127Z,89
2023-02-25T03:15:08.208Z,89
2023-02-25T03:16:08.189Z,89
2023-02-25T03:17:08.127Z,89
2023-02-25T03:18:08.592Z,89
2023-02-25T03:19:08.447Z,89
2023-02-25T03:20:08.362Z,89
2023-02-25T03:21:08.882Z,89
2023-02-25T03:22:08.586Z,89
2023-02-25T03:23:08.457Z,89
2023-02-25T03:24:08.221Z,89
2023-02-25T03:25:08.037Z,89
2023-02-25T03:26:08.247Z,89
2023-02-25T03:27:08.213Z,89
2023-02-25T03:28:07.996Z,89
2023-02-25T03:30:08.559Z,89
2023-02-25T03:31:08.436Z,89
2023-02-25T03:32:08.469Z,89
2023-02-25T03:33:08.867Z,89
2023-02-25T03:34:08.470Z,89
2023-02-25T03:35:08.620Z,89
2023-02-25T03:36:08.192Z,89
2023-02-25T03:37:08.122Z,89
2023-02-25T03:38:08.065Z,89
2023-02-25T03:39:08.747Z,89
2023-02-25T03:40:08.567Z,89
2023-02-25T03:41:08.796Z,89
2023-02-25T03:42:08.614Z,89
2023-02-25T03:43:10.457Z,89
2023-02-25T03:44:08.087Z,89
2023-02-25T03:45:08.156Z,89
2023-02-25T03:46:08.479Z,89
2023-02-25T03:48:08.464Z,89
2023-02-25T03:49:08.382Z,89
2023-02-25T03:50:08.076Z,89
2023-02-25T03:51:08.253Z,89
2023-02-25T03:52:08.215Z,89
2023-02-25T03:53:07.907Z,89
2023-02-25T03:54:07.771Z,89
2023-02-25T03:55:08.878Z,89
2023-02-25T03:56:07.966Z,89
2023-02-25T03:57:08.807Z,89
2023-02-25T03:58:08.599Z,89
2023-02-25T03:59:08.446Z,89
2023-02-25T04:00:08.313Z,89
2023-02-25T04:01:08.469Z,89
2023-02-25T04:02:08.339Z,89
2023-02-25T04:03:07.862Z,89
2023-02-25T04:04:08.416Z,89
2023-02-25T04:05:08.586Z,89
2023-02-25T04:06:08.660Z,89
2023-02-25T04:07:08.510Z,89
2023-02-25T04:09:08.003Z,89
2023-02-25T04:10:07.939Z,89
2023-02-25T04:12:07.953Z,89
2023-02-25T04:13:08.768Z,89
2023-02-25T04:14:08.702Z,89
2023-02-25T04:15:08.295Z,89
2023-02-25T04:16:08.681Z,89
2023-02-25T04:17:08.230Z,89
2023-02-25T04:18:07.704Z,89
2023-02-25T04:19:08.630Z,89
2023-02-25T04:20:08.247Z,89
2023-02-25T04:21:07.714Z,89
2023-02-25T04:22:08.690Z,89
2023-02-25T04:23:08.436Z,89
2023-02-25T04:24:08.054Z,89
2023-02-25T04:25:07.848Z,89
2023-02-25T04:27:08.726Z,89
2023-02-25T04:28:08.465Z,89
2023-02-25T04:30:08.375Z,89
2023-02-25T04:31:09.178Z,89
2023-02-25T04:32:08.754Z,89
2023-02-25T04:33:07.737Z,89
2023-02-25T04:34:08.830Z,89
2023-02-25T04:35:08.559Z,89
2023-02-25T04:36:07.786Z,89
2023-02-25T04:37:07.838Z,89
2023-02-25T04:38:11.201Z,89
2023-02-25T04:39:08.360Z,89
2023-02-25T04:40:08.201Z,89
2023-02-25T04:41:08.637Z,89
2023-02-25T04:42:08.471Z,89
2023-02-25T04:43:08.072Z,89
2023-02-25T04:44:08.090Z,89
2023-02-25T04:45:08.897Z,89
2023-02-25T04:46:08.368Z,89
2023-02-25T04:47:08.270Z,89
2023-02-25T04:48:07.971Z,89
2023-02-25T04:49:08.020Z,89
2023-02-25T04:50:08.768Z,89
2023-02-25T04:51:07.955Z,89
2023-02-25T04:52:08.738Z,89
2023-02-25T04:54:08.281Z,89
2023-02-25T04:55:07.974Z,89
2023-02-25T04:56:08.211Z,89
2023-02-25T04:57:07.955Z,89
2023-02-25T04:58:08.770Z,89
2023-02-25T04:59:08.702Z,89
2023-02-25T05:00:08.523Z,90
2023-02-25T05:01:08.709Z,89
2023-02-25T05:02:07.200Z,89
2023-02-25T05:03:08.656Z,89
2023-02-25T05:04:08.418Z,89
2023-02-25T05:05:08.570Z,89
2023-02-25T05:06:08.779Z,89
2023-02-25T05:08:08.192Z,89
2023-02-25T05:09:11.376Z,89
2023-02-25T05:10:08.794Z,89
2023-02-25T05:11:07.764Z,89
2023-02-25T05:12:08.755Z,89
2023-02-25T05:13:08.261Z,89
2023-02-25T05:14:08.401Z,89
2023-02-25T05:15:08.478Z,89
2023-02-25T05:16:08.136Z,89
2023-02-25T05:17:08.656Z,89
2023-02-25T05:18:08.692Z,89
2023-02-25T05:19:08.444Z,89
2023-02-25T05:20:08.515Z,89
2023-02-25T05:21:08.595Z,89
2023-02-25T05:22:08.215Z,89
2023-02-25T05:23:08.239Z,89
2023-02-25T05:24:08.089Z,89
2023-02-25T05:25:08.835Z,89
2023-02-25T05:26:08.005Z,89
2023-02-25T05:27:08.655Z,89
2023-02-25T05:28:10.667Z,89
2023-02-25T05:29:08.046Z,89
2023-02-25T05:30:08.455Z,89
2023-02-25T05:32:08.757Z,89
2023-02-25T05:33:09.155Z,89
2023-02-25T05:34:08.382Z,89
2023-02-25T05:35:08.363Z,89
2023-02-25T05:36:08.353Z,89
2023-02-25T05:37:08.071Z,89
2023-02-25T05:38:07.983Z,89
2023-02-25T05:39:08.823Z,89
2023-02-25T05:40:08.637Z,89
2023-02-25T05:41:07.856Z,89
2023-02-25T05:43:08.642Z,89
2023-02-25T05:44:08.363Z,89
2023-02-25T05:45:07.974Z,89
2023-02-25T05:46:08.670Z,89
2023-02-25T05:47:08.636Z,89
2023-02-25T05:48:08.015Z,89
2023-02-25T05:49:07.873Z,89
2023-02-25T05:51:08.248Z,89
2023-02-25T05:52:07.851Z,89
2023-02-25T05:53:08.721Z,89
2023-02-25T05:55:08.126Z,89
2023-02-25T05:56:08.497Z,89
2023-02-25T05:57:08.226Z,89
2023-02-25T05:58:07.951Z,89
2023-02-25T05:59:07.651Z,89
2023-02-25T06:00:08.358Z,89
2023-02-25T06:01:07.793Z,89
2023-02-25T06:02:08.893Z,89
2023-02-25T06:03:08.620Z,89
2023-02-25T06:04:07.966Z,89
2023-02-25T06:05:08.563Z,89
2023-02-25T06:07:07.952Z,89
2023-02-25T06:08:08.819Z,89
2023-02-25T06:09:08.530Z,89
2023-02-25T06:10:08.059Z,88
2023-02-25T06:11:08.827Z,88
2023-02-25T06:12:08.362Z,88
2023-02-25T06:13:08.105Z,88
2023-02-25T06:14:07.925Z,88
2023-02-25T06:15:07.850Z,88
2023-02-25T06:16:08.221Z,88
2023-02-25T06:17:08.934Z,88
2023-02-25T06:18:08.684Z,88
2023-02-25T06:19:08.229Z,88
2023-02-25T06:20:08.275Z,88
2023-02-25T06:21:08.187Z,88
2023-02-25T06:22:08.244Z,88
2023-02-25T06:23:08.070Z,88
2023-02-25T06:24:11.799Z,88
2023-02-25T06:25:08.573Z,88
2023-02-25T06:27:08.380Z,88
2023-02-25T06:28:08.191Z,88
2023-02-25T06:29:08.029Z,88
2023-02-25T06:30:07.841Z,88
2023-02-25T06:31:08.285Z,88
2023-02-25T06:32:08.774Z,88
2023-02-25T06:33:08.606Z,88
2023-02-25T06:34:08.293Z,88
2023-02-25T06:35:08.203Z,88
2023-02-25T06:36:08.436Z,88
2023-02-25T06:37:08.170Z,88
2023-02-25T06:38:08.089Z,88
2023-02-25T06:39:08.741Z,88
2023-02-25T06:40:08.564Z,88
2023-02-25T06:41:07.804Z,88
2023-02-25T06:42:08.738Z,88
2023-02-25T06:43:08.327Z,88
2023-02-25T06:44:08.287Z,88
2023-02-25T06:45:08.052Z,88
2023-02-25T06:46:08.776Z,88
2023-02-25T06:47:08.521Z,88
2023-02-25T06:48:08.125Z,88
2023-02-25T06:49:07.878Z,88
2023-02-25T06:50:09.177Z,88
2023-02-25T06:51:07.852Z,88
2023-02-25T06:52:07.788Z,88
2023-02-25T06:53:08.636Z,88
2023-02-25T06:54:08.578Z,88
2023-02-25T06:56:08.476Z,88
2023-02-25T06:57:08.095Z,88
2023-02-25T06:58:08.024Z,88
2023-02-25T06:59:07.871Z,88
2023-02-25T07:00:08.717Z,88
2023-02-25T07:01:08.092Z,88
2023-02-25T07:02:08.777Z,88
2023-02-25T07:03:08.312Z,88
2023-02-25T07:04:08.407Z,88
2023-02-25T07:06:08.313Z,88
2023-02-25T07:07:08.274Z,88
2023-02-25T07:08:07.849Z,88
2023-02-25T07:09:08.514Z,88
2023-02-25T07:10:08.396Z,88
2023-02-25T07:11:08.068Z,88
2023-02-25T07:12:08.888Z,88
2023-02-25T07:13:08.482Z,88
2023-02-25T07:14:08.261Z,87
2023-02-25T07:15:08.245Z,87
2023-02-25T07:16:09.337Z,87
2023-02-25T07:17:07.932Z,87
2023-02-25T07:18:08.773Z,87
2023-02-25T07:19:08.737Z,87
2023-02-25T07:20:08.473Z,87
2023-02-25T07:21:08.748Z,87
2023-02-25T07:22:08.406Z,87
2023-02-25T07:23:08.297Z,87
2023-02-25T07:24:07.976Z,87
2023-02-25T07:25:08.924Z,87
2023-02-25T07:26:07.860Z,87
2023-02-25T07:27:08.806Z,87
2023-02-25T07:29:08.112Z,86
2023-02-25T07:30:07.806Z,86
2023-02-25T07:31:08.607Z,86
2023-02-25T07:32:08.760Z,86
2023-02-25T07:33:10.435Z,86
2023-02-25T07:34:08.465Z,86
2023-02-25T07:35:08.406Z,86
2023-02-25T07:36:08.390Z,86
2023-02-25T07:37:08.271Z,86
2023-02-25T07:38:07.794Z,86
2023-02-25T07:39:08.907Z,86
2023-02-25T07:42:07.798Z,86
2023-02-25T07:43:08.548Z,86
2023-02-25T07:44:08.502Z,86
2023-02-25T07:45:08.615Z,86
2023-02-25T07:46:09.110Z,87
2023-02-25T07:47:08.612Z,87
2023-02-25T07:48:08.360Z,87
2023-02-25T07:49:07.855Z,87
2023-02-25T07:50:07.811Z,87
2023-02-25T07:51:08.107Z,86
2023-02-25T07:52:07.991Z,86
2023-02-25T07:53:08.408Z,86
2023-02-25T07:54:08.336Z,86
2023-02-25T07:55:08.218Z,86
2023-02-25T07:56:08.409Z,86
2023-02-25T07:57:08.143Z,86
2023-02-25T07:58:11.078Z,86
2023-02-25T07:59:08.692Z,86
2023-02-25T08:00:08.355Z,86
2023-02-25T08:01:08.284Z,86
2023-02-25T08:02:07.903Z,86
2023-02-25T08:03:08.768Z,86
2023-02-25T08:04:08.856Z,86
2023-02-25T08:05:07.957Z,86
2023-02-25T08:06:07.869Z,86
2023-02-25T08:08:08.562Z,86
2023-02-25T08:10:07.842Z,86
2023-02-25T08:11:07.708Z,86
2023-02-25T08:12:08.810Z,86
2023-02-25T08:13:08.585Z,86
2023-02-25T08:14:08.284Z,86
2023-02-25T08:15:08.057Z,86
2023-02-25T08:16:08.572Z,86
2023-02-25T08:17:08.154Z,86
2023-02-25T08:19:08.668Z,86
2023-02-25T08:20:08.482Z,86
2023-02-25T08:21:09.428Z,85
2023-02-25T08:22:08.136Z,85
2023-02-25T08:23:08.311Z,85
2023-02-25T08:24:07.907Z,85
2023-02-25T08:25:08.720Z,85
2023-02-25T08:26:08.433Z,85
2023-02-25T08:29:08.667Z,85
2023-02-25T08:30:08.731Z,85
2023-02-25T08:31:08.542Z,85
2023-02-25T08:32:09.124Z,85
2023-02-25T08:33:08.848Z,85
2023-02-25T08:34:08.506Z,85
2023-02-25T08:35:08.406Z,85
2023-02-25T08:36:08.554Z,84
2023-02-25T08:37:08.126Z,84
2023-02-25T08:38:07.941Z,84
2023-02-25T08:39:08.735Z,84
2023-02-25T08:40:08.504Z,84
2023-02-25T08:41:08.609Z,84
2023-02-25T08:42:08.467Z,84
2023-02-25T08:43:08.180Z,84
2023-02-25T08:44:07.941Z,84
2023-02-25T08:45:08.655Z,84
2023-02-25T08:46:08.886Z,84
2023-02-25T08:47:08.613Z,84
2023-02-25T08:48:08.156Z,84
2023-02-25T08:49:07.904Z,84
2023-02-25T08:50:08.948Z,84
2023-02-25T08:51:08.972Z,84
2023-02-25T08:52:08.657Z,84
2023-02-25T08:53:08.432Z,84
2023-02-25T08:54:08.272Z,84
2023-02-25T08:55:07.970Z,84
2023-02-25T08:56:07.765Z,84
2023-02-25T08:57:08.538Z,84
2023-02-25T08:58:08.194Z,84
2023-02-25T08:59:08.411Z,84
2023-02-25T09:00:10.027Z,84
2023-02-25T09:01:08.371Z,84
2023-02-25T09:02:08.436Z,84
2023-02-25T09:03:07.823Z,84
2023-02-25T09:04:08.965Z,83
2023-02-25T09:05:08.647Z,83
2023-02-25T09:06:08.503Z,83
2023-02-25T09:07:08.137Z,83
2023-02-25T09:08:07.868Z,82
2023-02-25T09:09:08.842Z,82
2023-02-25T09:12:07.851Z,82
2023-02-25T09:13:07.741Z,82
2023-02-25T09:14:08.791Z,81
2023-02-25T09:15:08.668Z,81
2023-02-25T09:17:08.542Z,81
2023-02-25T09:18:08.197Z,81
2023-02-25T09:19:07.749Z,81
2023-02-25T09:20:08.624Z,81
2023-02-25T09:21:07.853Z,81
2023-02-25T09:22:08.467Z,81
2023-02-25T09:23:08.479Z,81
2023-02-25T09:24:08.153Z,81
2023-02-25T09:25:07.966Z,80
2023-02-25T09:26:08.485Z,80
2023-02-25T09:27:08.354Z,80
2023-02-25T09:28:07.862Z,80
2023-02-25T09:29:07.706Z,79
2023-02-25T09:30:08.882Z,79
2023-02-25T09:31:08.822Z,79
2023-02-25T09:32:08.680Z,79
2023-02-25T09:33:08.934Z,79
2023-02-25T09:34:07.856Z,79
2023-02-25T09:36:07.894Z,79
2023-02-25T09:37:07.659Z,79
2023-02-25T09:39:08.305Z,78
2023-02-25T09:40:08.117Z,78
2023-02-25T09:41:08.297Z,78
2023-02-25T09:44:08.211Z,77
2023-02-25T09:45:08.117Z,76
2023-02-25T09:46:08.682Z,76
2023-02-25T09:47:08.214Z,76
2023-02-25T09:48:08.183Z,76
2023-02-25T09:49:08.489Z,76
2023-02-25T09:50:08.266Z,76
2023-02-25T09:51:08.382Z,76
2023-02-25T09:52:08.175Z,76
2023-02-25T09:53:07.951Z,75
2023-02-25T09:54:12.254Z,75
2023-02-25T09:55:08.385Z,75
2023-02-25T09:56:08.089Z,75
2023-02-25T09:57:08.635Z,75
2023-02-25T09:58:07.715Z,75
2023-02-25T10:00:07.827Z,74
2023-02-25T10:01:08.264Z,74
2023-02-25T10:02:08.371Z,74
2023-02-25T10:03:08.438Z,74
2023-02-25T10:04:08.631Z,74
2023-02-25T10:05:08.658Z,74
2023-02-25T10:06:08.689Z,73
2023-02-25T10:07:08.210Z,73
2023-02-25T10:08:08.036Z,73
2023-02-25T10:09:07.809Z,73
2023-02-25T10:10:08.542Z,73
2023-02-25T10:11:08.664Z,73
2023-02-25T10:12:08.658Z,73
2023-02-25T10:14:08.255Z,73
2023-02-25T10:15:08.032Z,73
2023-02-25T10:16:08.158Z,73
2023-02-25T10:17:08.138Z,72
2023-02-25T10:18:08.782Z,72
2023-02-25T10:19:08.464Z,72
2023-02-25T10:20:08.063Z,72
2023-02-25T10:22:08.454Z,71
2023-02-25T10:23:08.360Z,70
2023-02-25T10:24:08.025Z,71
2023-02-25T10:25:08.075Z,71
2023-02-25T10:26:08.785Z,71
2023-02-25T10:27:08.502Z,71
2023-02-25T10:28:08.355Z,71
2023-02-25T10:29:08.234Z,71
2023-02-25T10:30:07.909Z,71
2023-02-25T10:31:08.939Z,71
2023-02-25T10:32:08.887Z,70
2023-02-25T10:33:07.911Z,70
2023-02-25T10:34:10.174Z,70
2023-02-25T10:35:08.528Z,71
2023-02-25T10:39:08.371Z,71
2023-02-25T10:40:10.765Z,71
2023-02-25T10:41:08.755Z,70
2023-02-25T10:42:08.344Z,69
2023-02-25T10:43:08.278Z,70
2023-02-25T10:44:08.192Z,70
2023-02-25T10:45:08.084Z,70
2023-02-25T10:46:08.665Z,70
2023-02-25T10:47:08.212Z,70
2023-02-25T10:48:07.828Z,70
2023-02-25T10:49:16.147Z,70
2023-02-25T10:50:08.502Z,70
2023-02-25T10:51:07.960Z,70
2023-02-25T10:52:07.926Z,70
2023-02-25T10:53:08.685Z,70
2023-02-25T10:54:08.525Z,70
2023-02-25T10:55:08.203Z,70
2023-02-25T10:57:08.450Z,70
2023-02-25T10:59:07.755Z,70
2023-02-25T11:00:08.665Z,70
2023-02-25T11:02:08.219Z,69
2023-02-25T11:03:08.841Z,69
2023-02-25T11:04:08.515Z,69
2023-02-25T11:05:08.174Z,69
2023-02-25T11:06:08.117Z,69
2023-02-25T11:07:07.729Z,69
2023-02-25T11:08:08.741Z,70
2023-02-25T11:09:08.602Z,69
2023-02-25T11:10:08.362Z,69
2023-02-25T11:11:08.319Z,70
2023-02-25T11:12:08.424Z,70
2023-02-25T11:13:08.017Z,70
2023-02-25T11:14:07.807Z,70
2023-02-25T11:15:08.593Z,70
2023-02-25T11:16:07.883Z,70
2023-02-25T11:17:11.437Z,70
2023-02-25T11:18:07.969Z,70
2023-02-25T11:19:07.904Z,70
2023-02-25T11:20:08.511Z,70
2023-02-25T11:21:08.581Z,70
2023-02-25T11:22:08.419Z,70
2023-02-25T11:23:08.167Z,70
2023-02-25T11:26:08.092Z,70
2023-02-25T11:27:08.657Z,70
2023-02-25T11:28:08.323Z,70
2023-02-25T11:29:08.250Z,70
2023-02-25T11:30:07.811Z,70
2023-02-25T11:31:08.947Z,70
2023-02-25T11:32:09.159Z,70
2023-02-25T11:33:07.604Z,70
2023-02-25T11:34:08.885Z,70
2023-02-25T11:35:08.588Z,70
2023-02-25T11:36:08.544Z,70
2023-02-25T11:37:09.880Z,70
2023-02-25T11:38:08.136Z,70
2023-02-25T11:39:08.195Z,70
2023-02-25T11:40:07.805Z,70
2023-02-25T11:41:07.920Z,70
2023-02-25T11:42:08.672Z,70
2023-02-25T11:43:08.576Z,70
2023-02-25T11:44:09.504Z,69
2023-02-25T11:45:08.073Z,69
2023-02-25T11:46:08.460Z,70
2023-02-25T11:47:08.169Z,70
2023-02-25T11:48:08.827Z,70
2023-02-25T11:49:08.567Z,70
2023-02-25T11:50:08.549Z,70
2023-02-25T11:51:08.385Z,70
2023-02-25T11:53:08.165Z,71
2023-02-25T11:54:07.973Z,71
2023-02-25T11:55:11.063Z,71
2023-02-25T11:56:08.106Z,71
2023-02-25T11:57:08.043Z,71
2023-02-25T12:00:08.215Z,70
2023-02-25T12:01:09.211Z,70
2023-02-25T12:02:08.404Z,70
2023-02-25T12:03:08.271Z,70
2023-02-25T12:05:07.874Z,69
2023-02-25T12:06:08.117Z,69
2023-02-25T12:07:07.987Z,69
2023-02-25T12:09:08.637Z,69
2023-02-25T12:10:08.303Z,69
2023-02-25T12:11:08.275Z,69
2023-02-25T12:12:08.090Z,69
2023-02-25T12:13:07.728Z,69
2023-02-25T12:14:08.534Z,69
2023-02-25T12:15:08.358Z,68
2023-02-25T12:16:08.510Z,68
2023-02-25T12:17:08.273Z,68
2023-02-25T12:18:09.189Z,68
2023-02-25T12:19:10.204Z,68
2023-02-25T12:20:08.607Z,68
2023-02-25T12:21:08.034Z,68
2023-02-25T12:22:08.828Z,68
2023-02-25T12:24:08.458Z,68
2023-02-25T12:25:07.954Z,68
2023-02-25T12:26:08.280Z,68
2023-02-25T12:27:08.199Z,68
2023-02-25T12:28:07.654Z,68
2023-02-25T12:29:08.641Z,68
2023-02-25T12:30:07.997Z,68
2023-02-25T12:31:08.460Z,68
2023-02-25T12:32:08.720Z,68
2023-02-25T12:33:08.786Z,68
2023-02-25T12:34:08.488Z,68
2023-02-25T12:35:08.256Z,68
2023-02-25T12:36:08.576Z,68
2023-02-25T12:37:08.148Z,68
2023-02-25T12:38:07.921Z,68
2023-02-25T12:39:08.667Z,68
2023-02-25T12:40:08.503Z,68
2023-02-25T12:41:08.640Z,67
2023-02-25T12:42:08.572Z,67
2023-02-25T12:43:08.405Z,67
2023-02-25T12:44:08.189Z,67
2023-02-25T12:45:08.073Z,66
2023-02-25T12:46:08.633Z,66
2023-02-25T12:48:07.995Z,66
2023-02-25T12:49:08.724Z,66
2023-02-25T12:50:08.466Z,66
2023-02-25T12:51:08.612Z,66
2023-02-25T12:52:08.555Z,65
2023-02-25T12:53:08.267Z,65
2023-02-25T12:54:08.043Z,65
2023-02-25T12:55:08.817Z,65
2023-02-25T12:56:07.755Z,65
2023-02-25T12:57:08.796Z,65
2023-02-25T12:58:08.515Z,65
2023-02-25T12:59:08.317Z,65
2023-02-25T13:00:08.138Z,65
2023-02-25T13:01:08.422Z,65
2023-02-25T13:02:07.871Z,65
2023-02-25T13:03:08.793Z,65
2023-02-25T13:04:08.812Z,65
2023-02-25T13:05:08.141Z,64
2023-02-25T13:06:08.660Z,64
2023-02-25T13:07:08.270Z,64
2023-02-25T13:08:07.897Z,64
2023-02-25T13:09:08.777Z,64
2023-02-25T13:10:08.900Z,65
2023-02-25T13:11:08.705Z,64
2023-02-25T13:12:17.992Z,64
2023-02-25T13:13:08.363Z,64
2023-02-25T13:14:08.173Z,64
2023-02-25T13:15:07.805Z,64
2023-02-25T13:16:08.478Z,64
2023-02-25T13:17:08.287Z,64
2023-02-25T13:18:07.988Z,64
2023-02-25T13:20:08.726Z,64
2023-02-25T13:21:07.966Z,64
2023-02-25T13:22:08.684Z,64
2023-02-25T13:23:08.583Z,64
2023-02-25T13:24:08.339Z,64
2023-02-25T13:25:08.053Z,64
2023-02-25T13:26:07.952Z,65
2023-02-25T13:27:08.681Z,65
2023-02-25T13:28:08.384Z,65
2023-02-25T13:29:08.359Z,65
2023-02-25T13:30:07.955Z,65
2023-02-25T13:31:08.659Z,65
2023-02-25T13:32:08.778Z,65
2023-02-25T13:33:08.147Z,65
2023-02-25T13:34:08.047Z,65
2023-02-25T13:35:08.660Z,65
2023-02-25T13:36:08.071Z,65
2023-02-25T13:37:08.842Z,65
2023-02-25T13:38:08.468Z,65
2023-02-25T13:39:08.097Z,66
2023-02-25T13:40:08.168Z,66
2023-02-25T13:41:08.410Z,65
2023-02-25T13:42:08.167Z,65
2023-02-25T13:43:07.846Z,65
2023-02-25T13:44:08.816Z,66
2023-02-25T13:47:08.322Z,66
2023-02-25T13:48:08.068Z,66
2023-02-25T13:49:07.841Z,66
2023-02-25T13:50:08.890Z,66
2023-02-25T13:51:07.952Z,66
2023-02-25T13:52:08.684Z,66
2023-02-25T13:54:08.325Z,66
2023-02-25T13:55:08.032Z,66
2023-02-25T13:56:08.773Z,66
2023-02-25T13:57:08.239Z,66
2023-02-25T13:58:08.126Z,66
2023-02-25T13:59:08.027Z,66
2023-02-25T14:00:08.896Z,66
2023-02-25T14:01:08.068Z,66
2023-02-25T14:02:09.044Z,66
2023-02-25T14:03:08.544Z,66
2023-02-25T14:04:08.182Z,66
2023-02-25T14:05:08.077Z,66
2023-02-25T14:06:08.149Z,66
2023-02-25T14:07:07.958Z,66
2023-02-25T14:08:07.808Z,65
2023-02-25T14:10:08.410Z,65
2023-02-25T14:12:18.655Z,65
2023-02-25T14:13:08.216Z,65
2023-02-25T14:14:07.993Z,65
2023-02-25T14:16:08.317Z,65
2023-02-25T14:17:08.823Z,65
2023-02-25T14:18:08.462Z,65
2023-02-25T14:19:08.174Z,65
2023-02-25T14:20:08.282Z,65
2023-02-25T14:22:08.096Z,65
2023-02-25T14:23:07.973Z,65
2023-02-25T14:24:07.827Z,65
2023-02-25T14:25:08.596Z,65
2023-02-25T14:26:08.875Z,65
2023-02-25T14:27:08.470Z,65
2023-02-25T14:28:08.371Z,65
2023-02-25T14:29:08.082Z,65
2023-02-25T14:31:08.782Z,65
2023-02-25T14:32:08.563Z,65
2023-02-25T14:33:08.054Z,65
2023-02-25T14:34:08.515Z,65
2023-02-25T14:36:08.835Z,65
2023-02-25T14:37:08.613Z,65
2023-02-25T14:38:08.503Z,65
2023-02-25T14:39:08.226Z,65
2023-02-25T14:40:08.189Z,65
2023-02-25T14:41:08.156Z,65
2023-02-25T14:42:07.933Z,65
2023-02-25T14:43:10.655Z,65
2023-02-25T14:44:08.394Z,66
2023-02-25T14:46:08.093Z,66
2023-02-25T14:47:08.597Z,66
2023-02-25T14:48:08.511Z,66
2023-02-25T14:49:08.347Z,66
2023-02-25T14:50:07.905Z,66
2023-02-25T14:51:07.901Z,66
2023-02-25T14:52:07.869Z,66
2023-02-25T14:53:08.791Z,66
2023-02-25T14:54:08.500Z,66
2023-02-25T14:55:08.535Z,66
2023-02-25T14:56:07.791Z,67
2023-02-25T14:57:08.534Z,67
2023-02-25T14:58:08.173Z,67
2023-02-25T14:59:07.978Z,67
2023-02-25T15:00:08.978Z,67
2023-02-25T15:01:08.082Z,68
2023-02-25T15:02:07.957Z,68
2023-02-25T15:03:08.470Z,68
2023-02-25T15:05:08.153Z,69
2023-02-25T15:06:08.119Z,69
2023-02-25T15:07:07.796Z,69
2023-02-25T15:08:08.310Z,69
2023-02-25T15:09:08.060Z,69
2023-02-25T15:10:08.025Z,69
2023-02-25T15:11:08.179Z,69
2023-02-25T15:12:07.865Z,69
2023-02-25T15:13:07.561Z,69
2023-02-25T15:14:08.506Z,69
2023-02-25T15:15:08.277Z,69
2023-02-25T15:16:08.435Z,70
2023-02-25T15:17:07.852Z,70
2023-02-25T15:18:07.673Z,70
2023-02-25T15:19:08.671Z,70
2023-02-25T15:21:08.047Z,70
2023-02-25T15:22:08.832Z,70
2023-02-25T15:23:08.372Z,70
2023-02-25T15:24:08.396Z,70
2023-02-25T15:25:08.330Z,70
2023-02-25T15:26:08.286Z,70
2023-02-25T15:27:08.261Z,70
2023-02-25T15:28:08.166Z,70
2023-02-25T15:29:07.749Z,70
2023-02-25T15:30:08.881Z,71
2023-02-25T15:32:08.734Z,71
2023-02-25T15:34:07.932Z,71
2023-02-25T15:35:08.428Z,71
2023-02-25T15:36:07.731Z,71
2023-02-25T15:37:08.611Z,71
2023-02-25T15:38:08.559Z,71
2023-02-25T15:39:08.283Z,71
2023-02-25T15:41:08.091Z,71
2023-02-25T15:42:07.948Z,71